TimeCST,TemperatureF,Dew PointF,Humidity,Sea Level PressureIn,VisibilityMPH,Wind Direction,Wind SpeedMPH,Gust SpeedMPH,PrecipitationIn,Events,Conditions,WindDirDegrees,DateUTC
12:52 AM,21.0,19.0,92,30.36,-9999.0,ESE,9.2,-,N/A,,Unknown,110,2013-03-01 06:52:00
1:52 AM,21.0,18.0,88,30.36,-9999.0,ESE,9.2,-,N/A,,Unknown,110,2013-03-01 07:52:00
2:52 AM,19.9,18.0,92,30.36,-9999.0,ESE,9.2,-,N/A,,Unknown,120,2013-03-01 08:52:00
3:52 AM,19.9,17.1,89,30.36,-9999.0,ESE,9.2,-,N/A,,Unknown,120,2013-03-01 09:52:00
4:52 AM,19.9,17.1,89,30.37,-9999.0,ESE,5.8,-,N/A,,Unknown,110,2013-03-01 10:52:00
5:52 AM,19.0,17.1,92,30.39,-9999.0,ESE,4.6,-,N/A,,Unknown,110,2013-03-01 11:52:00
6:52 AM,19.0,17.1,92,30.40,-9999.0,ESE,8.1,-,N/A,,Unknown,120,2013-03-01 12:52:00
7:52 AM,19.0,17.1,92,30.41,-9999.0,ESE,6.9,-,N/A,,Unknown,120,2013-03-01 13:52:00
8:52 AM,19.9,18.0,92,30.42,-9999.0,SE,5.8,-,N/A,,Unknown,130,2013-03-01 14:52:00
9:52 AM,21.9,19.0,89,30.42,-9999.0,South,6.9,-,N/A,,Unknown,170,2013-03-01 15:52:00
10:52 AM,23.0,19.9,88,30.42,-9999.0,South,8.1,-,N/A,,Unknown,190,2013-03-01 16:52:00
11:52 AM,23.0,21.0,92,30.42,-9999.0,South,6.9,-,N/A,,Unknown,190,2013-03-01 17:52:00
12:52 PM,24.1,21.9,91,30.39,-9999.0,SSE,8.1,-,N/A,,Unknown,160,2013-03-01 18:52:00
1:52 PM,25.0,21.9,88,30.37,-9999.0,SSE,10.4,-,N/A,,Unknown,160,2013-03-01 19:52:00
2:52 PM,26.1,21.9,84,30.37,-9999.0,South,10.4,-,N/A,,Unknown,180,2013-03-01 20:52:00
3:52 PM,26.1,23.0,88,30.35,-9999.0,South,12.7,-,N/A,,Unknown,180,2013-03-01 21:52:00
4:52 PM,26.1,23.0,88,30.35,-9999.0,South,11.5,-,N/A,,Unknown,170,2013-03-01 22:52:00
5:52 PM,27.0,23.0,85,30.35,-9999.0,SSE,10.4,-,N/A,,Unknown,160,2013-03-01 23:52:00
6:52 PM,27.0,24.1,89,30.32,-9999.0,SE,11.5,-,N/A,,Unknown,140,2013-03-02 00:52:00
7:52 PM,26.1,23.0,88,30.30,-9999.0,SE,10.4,-,N/A,,Unknown,140,2013-03-02 01:52:00
8:52 PM,25.0,21.9,88,30.28,-9999.0,SE,10.4,-,N/A,,Unknown,140,2013-03-02 02:52:00
9:52 PM,24.1,21.9,91,30.28,-9999.0,SE,6.9,-,N/A,,Unknown,140,2013-03-02 03:52:00
10:52 PM,26.1,23.0,88,30.26,-9999.0,SSE,9.2,-,N/A,,Unknown,160,2013-03-02 04:52:00
11:52 PM,27.0,24.1,89,30.23,-9999.0,South,10.4,-,N/A,,Unknown,170,2013-03-02 05:52:00